createdAt,value
2022-11-24T00:01:18.956Z,99261.44
2022-11-24T00:03:51.982Z,99263.38
2022-11-24T00:06:18.702Z,99257.97
2022-11-24T00:08:46.622Z,99259.84
2022-11-24T00:11:16.086Z,99263.28
2022-11-24T00:13:46.360Z,99257.56
2022-11-24T00:16:27.747Z,99263.75
2022-11-24T00:18:57.102Z,99263.25
2022-11-24T00:21:25.503Z,99262.78
2022-11-24T00:23:53.020Z,99269.00
2022-11-24T00:26:22.762Z,99277.84
2022-11-24T00:28:51.783Z,99273.13
2022-11-24T00:31:24.872Z,99271.53
2022-11-24T00:33:53.975Z,99279.00
2022-11-24T00:36:23.421Z,99271.03
2022-11-24T00:38:58.636Z,99283.56
2022-11-24T00:41:26.431Z,99288.81
2022-11-24T00:43:54.051Z,99292.06
2022-11-24T00:46:21.480Z,99292.16
2022-11-24T00:48:48.629Z,99299.41
2022-11-24T00:51:17.820Z,99299.69
2022-11-24T00:53:47.479Z,99303.13
2022-11-24T00:56:14.765Z,99298.84
2022-11-24T00:58:41.798Z,99308.44
2022-11-24T01:01:11.947Z,99308.44
2022-11-24T01:03:39.900Z,99301.53
2022-11-24T01:06:09.037Z,99302.91
2022-11-24T01:08:37.972Z,99301.97
2022-11-24T01:11:19.459Z,99304.72
2022-11-24T01:13:48.955Z,99305.66
2022-11-24T01:16:21.887Z,99303.66
2022-11-24T01:18:49.604Z,99310.75
2022-11-24T01:21:17.373Z,99304.38
2022-11-24T01:23:44.600Z,99311.47
2022-11-24T01:26:14.646Z,99318.69
2022-11-24T01:28:46.566Z,99313.06
2022-11-24T01:31:16.111Z,99315.34
2022-11-24T01:33:43.281Z,99308.38
2022-11-24T01:36:10.415Z,99315.28
2022-11-24T01:38:37.457Z,99311.81
2022-11-24T01:41:08.472Z,99313.41
2022-11-24T01:43:35.935Z,99313.72
2022-11-24T01:46:17.229Z,99317.69
2022-11-24T01:48:50.575Z,99318.22
2022-11-24T01:51:25.292Z,99322.06
2022-11-24T01:53:57.924Z,99321.91
2022-11-24T01:56:26.461Z,99325.19
2022-11-24T01:58:59.078Z,99320.06
2022-11-24T02:01:26.173Z,99327.16
2022-11-24T02:03:53.755Z,99322.59
2022-11-24T02:06:25.146Z,99325.38
2022-11-24T02:09:01.069Z,99328.84
2022-11-24T02:11:33.564Z,99328.84
2022-11-24T02:14:01.078Z,99322.91
2022-11-24T02:16:29.007Z,99321.22
2022-11-24T02:18:56.398Z,99322.75
2022-11-24T02:21:23.349Z,99327.28
2022-11-24T02:24:05.211Z,99325.00
2022-11-24T02:26:37.640Z,99318.28
2022-11-24T02:29:04.702Z,99329.41
2022-11-24T02:31:31.664Z,99319.31
2022-11-24T02:33:58.698Z,99322.28
2022-11-24T02:36:25.448Z,99321.41
2022-11-24T02:38:52.463Z,99322.34
2022-11-24T02:41:21.825Z,99321.09
2022-11-24T02:43:54.923Z,99326.38
2022-11-24T02:46:21.830Z,99326.31
2022-11-24T02:48:48.961Z,99321.63
2022-11-24T02:51:15.833Z,99326.16
2022-11-24T02:53:42.869Z,99324.47
2022-11-24T02:56:09.672Z,99329.63
2022-11-24T02:58:36.958Z,99322.28
2022-11-24T03:01:03.930Z,99331.09
2022-11-24T03:03:31.433Z,99327.97
2022-11-24T03:05:58.190Z,99328.03
2022-11-24T03:08:25.194Z,99328.81
2022-11-24T03:10:51.942Z,99333.78
2022-11-24T03:13:18.934Z,99335.72
2022-11-24T03:15:45.764Z,99340.94
2022-11-24T03:18:12.830Z,99345.00
2022-11-24T03:20:39.542Z,99343.84
2022-11-24T03:23:06.584Z,99350.69
2022-11-24T03:25:33.361Z,99353.91
2022-11-24T03:28:00.437Z,99351.44
2022-11-24T03:30:27.529Z,99352.44
2022-11-24T03:32:54.585Z,99353.00
2022-11-24T03:35:22.091Z,99358.38
2022-11-24T03:37:49.316Z,99358.44
2022-11-24T03:40:17.947Z,99359.59
2022-11-24T03:42:45.030Z,99358.81
2022-11-24T03:47:58.777Z,99359.53
2022-11-24T03:50:25.494Z,99363.91
2022-11-24T03:52:52.496Z,99371.09
2022-11-24T03:55:19.223Z,99373.09
2022-11-24T03:57:46.278Z,99371.28
2022-11-24T04:00:13.365Z,99377.25
2022-11-24T04:02:40.450Z,99376.63
2022-11-24T04:05:07.634Z,99370.34
2022-11-24T04:07:34.735Z,99372.72
2022-11-24T04:10:01.633Z,99372.66
2022-11-24T04:12:44.239Z,99372.41
2022-11-24T04:15:12.715Z,99371.03
2022-11-24T04:17:40.006Z,99378.50
2022-11-24T04:20:07.742Z,99378.50
2022-11-24T04:22:35.742Z,99382.69
2022-11-24T04:25:03.110Z,99382.50
2022-11-24T04:27:30.476Z,99397.53
2022-11-24T04:29:57.252Z,99390.50
2022-11-24T04:32:24.485Z,99396.69
2022-11-24T04:34:51.222Z,99401.22
2022-11-24T04:37:18.233Z,99400.16
2022-11-24T04:39:46.294Z,99411.66
2022-11-24T04:42:13.499Z,99407.00
2022-11-24T04:44:40.313Z,99405.47
2022-11-24T04:47:07.411Z,99411.22
2022-11-24T04:49:34.147Z,99412.63
2022-11-24T04:52:01.148Z,99416.16
2022-11-24T04:54:27.889Z,99413.72
2022-11-24T04:56:55.086Z,99409.84
2022-11-24T04:59:21.823Z,99423.09
2022-11-24T05:01:48.881Z,99435.78
2022-11-24T05:04:16.219Z,99434.22
2022-11-24T05:06:43.318Z,99434.66
2022-11-24T05:09:14.573Z,99450.50
2022-11-24T05:11:42.042Z,99444.53
2022-11-24T05:14:08.799Z,99447.31
2022-11-24T05:16:37.268Z,99448.75
2022-11-24T05:19:04.116Z,99461.84
2022-11-24T05:21:31.183Z,99456.78
2022-11-24T05:23:58.073Z,99462.00
2022-11-24T05:26:26.080Z,99469.41
2022-11-24T05:28:52.959Z,99471.84
2022-11-24T05:31:20.102Z,99470.59
2022-11-24T05:33:47.012Z,99465.03
2022-11-24T05:36:34.089Z,99473.22
2022-11-24T05:39:01.230Z,99475.66
2022-11-24T05:41:28.428Z,99477.91
2022-11-24T05:43:55.256Z,99482.94
2022-11-24T05:46:22.393Z,99477.88
2022-11-24T05:48:49.502Z,99476.81
2022-11-24T05:51:16.881Z,99491.25
2022-11-24T05:53:43.585Z,99496.19
2022-11-24T05:56:10.655Z,99477.72
2022-11-24T05:58:37.441Z,99494.34
2022-11-24T06:01:07.622Z,99490.06
2022-11-24T06:03:34.393Z,99499.38
2022-11-24T06:06:01.784Z,99494.78
2022-11-24T06:08:31.255Z,99500.84
2022-11-24T06:11:17.608Z,99500.84
2022-11-24T06:13:45.894Z,99508.53
2022-11-24T06:16:13.324Z,99509.44
2022-11-24T06:18:40.346Z,99520.72
2022-11-24T06:21:12.055Z,99515.59
2022-11-24T06:23:39.689Z,99513.81
2022-11-24T06:26:07.063Z,99523.13
2022-11-24T06:28:33.853Z,99522.22
2022-11-24T06:31:02.418Z,99524.06
2022-11-24T06:33:33.722Z,99517.75
2022-11-24T06:36:07.157Z,99526.09
2022-11-24T06:38:35.572Z,99539.84
2022-11-24T06:41:06.269Z,99538.91
2022-11-24T06:43:34.333Z,99533.94
2022-11-24T06:46:02.277Z,99541.41
2022-11-24T06:48:30.102Z,99542.16
2022-11-24T06:51:01.727Z,99542.16
2022-11-24T06:53:37.678Z,99528.97
2022-11-24T06:56:12.086Z,99547.88
2022-11-24T06:58:43.014Z,99558.19
2022-11-24T07:01:14.073Z,99552.97
2022-11-24T07:03:40.837Z,99566.59
2022-11-24T07:06:07.912Z,99567.72
2022-11-24T07:08:34.715Z,99567.91
2022-11-24T07:11:09.716Z,99570.94
2022-11-24T07:13:36.899Z,99575.03
2022-11-24T07:16:19.480Z,99577.78
2022-11-24T07:18:47.890Z,99589.16
2022-11-24T07:21:15.449Z,99589.84
2022-11-24T07:23:42.626Z,99583.66
2022-11-24T07:26:10.527Z,99584.72
2022-11-24T07:28:37.824Z,99589.81
2022-11-24T07:31:10.447Z,99601.78
2022-11-24T07:33:37.558Z,99594.59
2022-11-24T07:36:06.554Z,99603.25
2022-11-24T07:38:35.266Z,99602.50
2022-11-24T07:41:04.521Z,99602.91
2022-11-24T07:43:32.487Z,99598.72
2022-11-24T07:46:00.232Z,99604.78
2022-11-24T07:48:27.448Z,99614.03
2022-11-24T07:50:56.300Z,99602.69
2022-11-24T07:53:23.230Z,99597.47
2022-11-24T07:55:55.045Z,99606.28
2022-11-24T07:58:22.765Z,99602.44
2022-11-24T08:00:49.952Z,99611.66
2022-11-24T08:03:16.821Z,99606.28
2022-11-24T08:06:07.660Z,99614.28
2022-11-24T08:08:34.386Z,99612.72
2022-11-24T08:11:07.131Z,99619.34
2022-11-24T08:13:35.107Z,99621.25
2022-11-24T08:16:10.731Z,99623.59
2022-11-24T08:18:38.681Z,99631.66
2022-11-24T08:21:06.968Z,99628.50
2022-11-24T08:23:34.222Z,99634.34
2022-11-24T08:26:10.717Z,99632.81
2022-11-24T08:28:38.292Z,99632.81
2022-11-24T08:31:09.223Z,99638.47
2022-11-24T08:33:36.545Z,99635.00
2022-11-24T08:36:09.475Z,99643.63
2022-11-24T08:38:36.748Z,99640.72
2022-11-24T08:41:09.782Z,99645.72
2022-11-24T08:43:37.018Z,99652.06
2022-11-24T08:46:10.415Z,99651.72
2022-11-24T08:48:37.568Z,99655.97
2022-11-24T08:51:13.307Z,99661.56
2022-11-24T08:53:40.669Z,99673.34
2022-11-24T08:56:09.079Z,99666.84
2022-11-24T08:58:36.864Z,99665.03
2022-11-24T09:01:12.139Z,99670.56
2022-11-24T09:03:42.366Z,99670.00
2022-11-24T09:06:13.949Z,99662.25
2022-11-24T09:08:40.842Z,99661.16
2022-11-24T09:11:11.017Z,99665.78
2022-11-24T09:13:38.714Z,99673.63
2022-11-24T09:16:08.597Z,99671.56
2022-11-24T09:18:35.394Z,99669.06
2022-11-24T09:21:11.577Z,99665.81
2022-11-24T09:23:39.194Z,99669.50
2022-11-24T09:26:11.945Z,99663.81
2022-11-24T09:28:39.046Z,99669.72
2022-11-24T09:31:08.726Z,99683.81
2022-11-24T09:33:36.744Z,99682.13
2022-11-24T09:36:04.575Z,99672.88
2022-11-24T09:38:31.862Z,99672.91
2022-11-24T09:41:23.221Z,99667.00
2022-11-24T09:43:55.677Z,99674.53
2022-11-24T09:46:59.911Z,99672.91
2022-11-24T09:49:47.309Z,99670.75
2022-11-24T09:52:26.791Z,99669.53
2022-11-24T09:55:00.891Z,99672.44
2022-11-24T09:57:36.950Z,99677.69
2022-11-24T10:00:12.416Z,99675.50
2022-11-24T10:02:39.999Z,99676.41
2022-11-24T10:05:07.332Z,99681.81
2022-11-24T10:08:02.636Z,99679.81
2022-11-24T10:10:42.516Z,99686.38
2022-11-24T10:13:35.249Z,99678.19
2022-11-24T10:16:21.915Z,99681.81
2022-11-24T10:19:22.108Z,99684.66
2022-11-24T10:22:01.186Z,99689.22
2022-11-24T10:25:08.367Z,99684.69
2022-11-24T10:27:44.145Z,99682.59
2022-11-24T10:30:21.644Z,99676.22
2022-11-24T10:32:53.041Z,99683.22
2022-11-24T10:35:24.448Z,99674.97
2022-11-24T10:38:00.626Z,99687.00
2022-11-24T10:40:56.416Z,99693.06
2022-11-24T10:43:27.071Z,99693.91
2022-11-24T10:45:59.715Z,99696.53
2022-11-24T10:48:31.145Z,99699.47
2022-11-24T10:51:17.212Z,99701.38
2022-11-24T10:53:46.108Z,99695.69
2022-11-24T10:56:13.226Z,99700.31
2022-11-24T10:58:40.108Z,99705.28
2022-11-24T11:01:12.902Z,99702.75
2022-11-24T11:03:50.741Z,99713.56
2022-11-24T11:06:28.711Z,99711.38
2022-11-24T11:09:24.626Z,99715.41
2022-11-24T11:11:53.794Z,99720.66
2022-11-24T11:14:32.983Z,99728.09
2022-11-24T11:17:00.125Z,99724.41
2022-11-24T11:19:54.157Z,99731.47
2022-11-24T11:22:31.140Z,99727.50
2022-11-24T11:25:04.030Z,99729.78
2022-11-24T11:27:31.090Z,99733.59
2022-11-24T11:36:16.254Z,99742.75
2022-11-24T11:38:45.048Z,99740.41
2022-11-24T11:41:21.694Z,99746.59
2022-11-24T11:43:56.453Z,99753.72
2022-11-24T11:46:28.934Z,99757.19
2022-11-24T11:48:56.050Z,99754.00
2022-11-24T11:51:57.895Z,99744.56
2022-11-24T11:54:57.187Z,99751.59
2022-11-24T11:57:44.145Z,99751.53
2022-11-24T12:00:24.340Z,99751.38
2022-11-24T12:03:03.703Z,99760.59
2022-11-24T12:05:33.911Z,99750.53
2022-11-24T12:08:25.964Z,99752.22
2022-11-24T12:11:22.051Z,99757.13
2022-11-24T12:13:48.758Z,99759.84
2022-11-24T12:16:25.148Z,99752.97
2022-11-24T12:19:18.564Z,99743.72
2022-11-24T12:22:02.249Z,99741.91
2022-11-24T12:24:55.199Z,99745.66
2022-11-24T12:27:32.452Z,99744.09
2022-11-24T12:30:06.001Z,99745.81
2022-11-24T12:32:41.880Z,99749.53
2022-11-24T12:35:30.157Z,99747.50
2022-11-24T12:38:21.990Z,99748.66
2022-11-24T12:41:43.258Z,99747.88
2022-11-24T12:44:48.848Z,99757.97
2022-11-24T12:47:22.106Z,99761.44
2022-11-24T12:50:07.309Z,99756.78
2022-11-24T12:52:39.856Z,99765.91
2022-11-24T12:55:16.747Z,99759.06
2022-11-24T12:57:52.502Z,99754.97
2022-11-24T13:00:29.404Z,99769.09
2022-11-24T13:03:17.788Z,99758.84
2022-11-24T13:06:03.136Z,99767.31
2022-11-24T13:08:31.147Z,99771.03
2022-11-24T13:11:21.185Z,99764.72
2022-11-24T13:14:05.679Z,99767.84
2022-11-24T13:16:37.088Z,99774.78
2022-11-24T13:19:33.727Z,99769.78
2022-11-24T13:22:06.592Z,99774.28
2022-11-24T13:24:39.279Z,99781.94
2022-11-24T13:27:15.913Z,99782.41
2022-11-24T13:29:47.023Z,99783.50
2022-11-24T13:32:14.637Z,99789.34
2022-11-24T13:34:42.765Z,99789.03
2022-11-24T13:37:40.096Z,99790.59
2022-11-24T13:40:13.399Z,99795.19
2022-11-24T13:43:01.248Z,99800.19
2022-11-24T13:45:41.058Z,99801.44
2022-11-24T13:48:20.976Z,99802.38
2022-11-24T13:50:51.448Z,99790.69
2022-11-24T13:53:40.195Z,99794.69
2022-11-24T13:56:12.990Z,99795.53
2022-11-24T13:58:40.026Z,99801.75
2022-11-24T14:01:24.933Z,99803.44
2022-11-24T14:07:00.094Z,99810.66
2022-11-24T14:09:32.457Z,99818.75
2022-11-24T14:12:01.728Z,99821.13
2022-11-24T14:14:29.076Z,99814.03
2022-11-24T14:17:14.213Z,99820.91
2022-11-24T14:19:42.789Z,99825.94
2022-11-24T14:22:16.948Z,99827.31
2022-11-24T14:24:56.502Z,99833.00
2022-11-24T14:27:32.522Z,99819.91
2022-11-24T14:30:20.856Z,99831.72
2022-11-24T14:33:02.101Z,99831.63
2022-11-24T14:35:31.922Z,99833.69
2022-11-24T14:38:01.730Z,99835.47
2022-11-24T14:40:42.373Z,99839.16
2022-11-24T14:43:24.750Z,99838.31
2022-11-24T14:46:09.349Z,99847.72
2022-11-24T14:48:38.723Z,99840.38
2022-11-24T14:51:11.325Z,99843.09
2022-11-24T14:53:43.176Z,99850.25
2022-11-24T14:56:35.422Z,99867.66
2022-11-24T14:59:03.053Z,99861.56
2022-11-24T15:01:34.029Z,99875.06
2022-11-24T15:04:38.904Z,99877.09
2022-11-24T15:07:20.525Z,99881.78
2022-11-24T15:09:47.281Z,99892.25
2022-11-24T15:12:48.115Z,99880.06
2022-11-24T15:15:15.079Z,99885.38
2022-11-24T15:17:52.258Z,99898.47
2022-11-24T15:20:44.547Z,99892.56
2022-11-24T15:23:20.825Z,99902.31
2022-11-24T15:25:48.276Z,99895.47
2022-11-24T15:28:15.497Z,99892.69
2022-11-24T15:30:42.425Z,99886.69
2022-11-24T15:33:17.632Z,99890.88
2022-11-24T15:35:45.480Z,99894.78
2022-11-24T15:38:13.118Z,99902.41
2022-11-24T15:40:42.122Z,99897.38
2022-11-24T15:43:19.590Z,99900.63
2022-11-24T15:45:46.539Z,99909.16
2022-11-24T15:48:17.992Z,99905.13
2022-11-24T15:50:47.161Z,99904.84
2022-11-24T15:53:23.293Z,99906.97
2022-11-24T15:55:50.593Z,99904.47
2022-11-24T15:58:17.890Z,99905.59
2022-11-24T16:00:45.755Z,99919.63
2022-11-24T16:03:45.055Z,99915.88
2022-11-24T16:05:59.876Z,99918.94
2022-11-24T16:08:26.988Z,99920.16
2022-11-24T16:10:53.820Z,99930.69
2022-11-24T16:13:20.843Z,99932.50
2022-11-24T16:15:47.639Z,99938.47
2022-11-24T16:18:14.830Z,99931.81
2022-11-24T16:20:41.614Z,99934.44
2022-11-24T16:23:11.210Z,99926.16
2022-11-24T16:25:38.169Z,99934.91
2022-11-24T16:28:05.273Z,99939.47
2022-11-24T16:30:32.098Z,99941.50
2022-11-24T16:32:59.143Z,99945.19
2022-11-24T16:35:25.952Z,99944.69
2022-11-24T16:37:53.113Z,99937.88
2022-11-24T16:40:20.151Z,99958.03
2022-11-24T16:42:47.243Z,99952.03
2022-11-24T16:45:14.122Z,99944.88
2022-11-24T16:47:42.145Z,99951.31
2022-11-24T16:50:10.844Z,99954.69
2022-11-24T16:52:38.764Z,99959.16
2022-11-24T16:55:06.669Z,99971.53
2022-11-24T16:57:33.998Z,99974.47
2022-11-24T17:00:00.920Z,99972.09
2022-11-24T17:02:28.247Z,99978.47
2022-11-24T17:04:55.255Z,99973.34
2022-11-24T17:07:22.491Z,99973.63
2022-11-24T17:09:49.422Z,99973.88
2022-11-24T17:12:16.411Z,99972.09
2022-11-24T17:14:52.651Z,99988.53
2022-11-24T17:17:30.312Z,99981.19
2022-11-24T17:19:57.084Z,99989.06
2022-11-24T17:22:24.198Z,99994.38
2022-11-24T17:24:51.007Z,99991.56
2022-11-24T17:27:18.059Z,99998.84
2022-11-24T17:29:44.927Z,99998.16
2022-11-24T17:32:12.295Z,99994.56
2022-11-24T17:34:39.188Z,99999.59
2022-11-24T17:37:06.230Z,99987.84
2022-11-24T17:39:33.121Z,99996.81
2022-11-24T17:42:00.329Z,99999.78
2022-11-24T17:44:27.578Z,100013.34
2022-11-24T17:46:54.649Z,100009.94
2022-11-24T17:49:21.545Z,100010.47
2022-11-24T17:51:50.574Z,100016.94
2022-11-24T17:54:45.273Z,100013.91
2022-11-24T17:57:05.269Z,100014.59
2022-11-24T17:59:32.057Z,100018.38
2022-11-24T18:01:59.233Z,100019.22
2022-11-24T18:04:26.037Z,100031.53
2022-11-24T18:06:53.117Z,100039.78
2022-11-24T18:09:19.943Z,100042.06
2022-11-24T18:11:47.856Z,100046.22
2022-11-24T18:14:14.766Z,100052.22
2022-11-24T18:16:42.005Z,100051.69
2022-11-24T18:19:11.035Z,100048.84
2022-11-24T18:21:40.354Z,100057.94
2022-11-24T18:24:11.732Z,100062.44
2022-11-24T18:26:40.233Z,100060.47
2022-11-24T18:29:07.974Z,100061.53
2022-11-24T18:31:36.198Z,100057.94
2022-11-24T18:34:05.233Z,100066.69
2022-11-24T18:36:33.142Z,100064.75
2022-11-24T18:39:08.239Z,100064.84
2022-11-24T18:41:36.093Z,100056.31
2022-11-24T18:44:07.648Z,100066.75
2022-11-24T18:46:34.981Z,100069.44
2022-11-24T18:49:01.770Z,100071.75
2022-11-24T18:51:29.157Z,100078.91
2022-11-24T18:53:59.307Z,100083.50
2022-11-24T18:56:26.666Z,100082.84
2022-11-24T18:58:55.471Z,100086.28
2022-11-24T19:01:26.081Z,100084.34
2022-11-24T19:03:55.804Z,100085.44
2022-11-24T19:06:34.547Z,100078.53
2022-11-24T19:09:08.937Z,100093.50
2022-11-24T19:11:38.938Z,100085.13
2022-11-24T19:14:08.427Z,100084.69
2022-11-24T19:16:36.051Z,100084.69
2022-11-24T19:19:03.940Z,100090.94
2022-11-24T19:21:33.635Z,100096.91
2022-11-24T19:24:04.970Z,100105.75
2022-11-24T19:26:35.218Z,100108.41
2022-11-24T19:29:03.121Z,100111.94
2022-11-24T19:31:34.443Z,100123.44
2022-11-24T19:34:05.861Z,100117.47
2022-11-24T19:36:32.995Z,100121.75
2022-11-24T19:38:59.909Z,100114.25
2022-11-24T19:41:29.314Z,100123.66
2022-11-24T19:43:56.743Z,100119.69
2022-11-24T19:46:29.318Z,100126.78
2022-11-24T19:48:59.977Z,100126.72
2022-11-24T19:51:32.340Z,100130.22
2022-11-24T19:54:00.245Z,100140.53
2022-11-24T19:56:30.447Z,100148.28
2022-11-24T19:58:57.845Z,100142.53
2022-11-24T20:01:30.487Z,100152.00
2022-11-24T20:04:02.584Z,100153.84
2022-11-24T20:06:32.783Z,100156.53
2022-11-24T20:09:00.709Z,100156.25
2022-11-24T20:11:28.583Z,100162.31
2022-11-24T20:13:56.583Z,100168.94
2022-11-24T20:16:26.753Z,100171.34
2022-11-24T20:18:56.278Z,100181.66
2022-11-24T20:21:31.538Z,100175.78
2022-11-24T20:24:01.241Z,100177.50
2022-11-24T20:26:31.866Z,100184.41
2022-11-24T20:28:59.614Z,100196.88
2022-11-24T20:31:32.233Z,100200.34
2022-11-24T20:34:00.960Z,100201.84
2022-11-24T20:36:30.293Z,100207.44
2022-11-24T20:38:59.834Z,100208.50
2022-11-24T20:41:29.265Z,100205.75
2022-11-24T20:43:58.095Z,100208.38
2022-11-24T20:46:30.494Z,100205.06
2022-11-24T20:48:58.182Z,100203.28
2022-11-24T20:51:30.966Z,100215.09
2022-11-24T20:54:00.327Z,100212.03
2022-11-24T20:56:30.028Z,100216.34
2022-11-24T20:58:57.269Z,100217.13
2022-11-24T21:01:28.140Z,100222.25
2022-11-24T21:03:57.768Z,100221.56
2022-11-24T21:06:26.294Z,100222.56
2022-11-24T21:08:53.198Z,100224.97
2022-11-24T21:11:21.879Z,100229.53
2022-11-24T21:13:49.797Z,100228.75
2022-11-24T21:16:46.157Z,100226.91
2022-11-24T21:19:14.855Z,100238.59
2022-11-24T21:21:42.932Z,100242.03
2022-11-24T21:24:12.822Z,100244.19
2022-11-24T21:26:41.169Z,100248.56
2022-11-24T21:29:08.559Z,100238.13
2022-11-24T21:31:37.426Z,100250.19
2022-11-24T21:34:05.417Z,100249.47
2022-11-24T21:36:34.803Z,100244.34
2022-11-24T21:39:03.107Z,100250.25
2022-11-24T21:41:33.204Z,100253.91
2022-11-24T21:44:00.467Z,100252.09
2022-11-24T21:46:29.245Z,100246.16
2022-11-24T21:48:56.048Z,100255.31
2022-11-24T21:51:23.108Z,100247.66
2022-11-24T21:53:49.884Z,100251.25
2022-11-24T21:56:19.446Z,100241.66
2022-11-24T21:58:50.522Z,100247.06
2022-11-24T22:01:19.392Z,100247.34
2022-11-24T22:03:46.401Z,100252.56
2022-11-24T22:06:14.199Z,100247.56
2022-11-24T22:08:41.109Z,100247.50
2022-11-24T22:11:23.315Z,100259.06
2022-11-24T22:13:51.175Z,100263.44
2022-11-24T22:16:23.052Z,100267.81
2022-11-24T22:18:51.669Z,100265.91
2022-11-24T22:21:24.327Z,100272.81
2022-11-24T22:23:54.885Z,100276.28
2022-11-24T22:26:23.919Z,100278.16
2022-11-24T22:28:50.917Z,100279.06
2022-11-24T22:31:23.941Z,100285.63
2022-11-24T22:33:51.991Z,100285.59
2022-11-24T22:36:23.121Z,100294.16
2022-11-24T22:38:58.270Z,100297.53
2022-11-24T22:41:25.831Z,100293.22
2022-11-24T22:43:53.887Z,100288.88
2022-11-24T22:46:26.674Z,100303.53
2022-11-24T22:48:54.929Z,100291.69
2022-11-24T22:51:26.458Z,100306.41
2022-11-24T22:53:58.650Z,100310.00
2022-11-24T22:56:27.921Z,100300.47
2022-11-24T22:58:54.711Z,100303.69
2022-11-24T23:01:24.316Z,100301.84
2022-11-24T23:03:56.058Z,100310.84
2022-11-24T23:06:25.436Z,100310.13
2022-11-24T23:08:52.830Z,100306.84
2022-11-24T23:11:27.397Z,100306.66
2022-11-24T23:14:00.455Z,100309.75
2022-11-24T23:16:28.979Z,100318.88
2022-11-24T23:18:56.511Z,100315.38
2022-11-24T23:21:35.109Z,100319.59
2022-11-24T23:24:04.190Z,100320.53
2022-11-24T23:26:37.137Z,100314.44
2022-11-24T23:29:05.318Z,100315.47
2022-11-24T23:31:33.229Z,100319.34
2022-11-24T23:34:02.496Z,100328.78
2022-11-24T23:36:30.367Z,100323.88
2022-11-24T23:39:02.095Z,100322.53
2022-11-24T23:41:30.364Z,100322.97
2022-11-24T23:43:57.236Z,100329.94
2022-11-24T23:46:25.847Z,100328.38
2022-11-24T23:48:53.696Z,100333.41
2022-11-24T23:51:24.116Z,100325.94
2022-11-24T23:53:51.639Z,100337.09
2022-11-24T23:56:21.563Z,100331.88
2022-11-24T23:58:49.032Z,100344.06
